sensor_id;sensor_type;location;lat;lon;timestamp;P1;durP1;ratioP1;P2;durP2;ratioP2
69551;SDS011;63774;45.292;11.784;2024-03-23T00:55:37;27.90;;;18.00;;
69551;SDS011;63774;45.292;11.784;2024-03-23T00:58:02;30.80;;;18.00;;
69551;SDS011;63774;45.292;11.784;2024-03-23T01:00:27;29.00;;;18.90;;
69551;SDS011;63774;45.292;11.784;2024-03-23T01:02:52;30.00;;;17.40;;
69551;SDS011;63774;45.292;11.784;2024-03-23T01:05:18;30.30;;;19.50;;
69551;SDS011;63774;45.292;11.784;2024-03-23T01:07:43;31.90;;;19.20;;
69551;SDS011;63774;45.292;11.784;2024-03-23T01:10:08;28.60;;;18.50;;
69551;SDS011;63774;45.292;11.784;2024-03-23T01:12:34;29.60;;;18.70;;
69551;SDS011;63774;45.292;11.784;2024-03-23T01:14:59;31.60;;;19.20;;
69551;SDS011;63774;45.292;11.784;2024-03-23T01:17:24;31.30;;;18.20;;
69551;SDS011;63774;45.292;11.784;2024-03-23T01:19:50;28.60;;;17.90;;
69551;SDS011;63774;45.292;11.784;2024-03-23T01:22:15;31.50;;;19.30;;
69551;SDS011;63774;45.292;11.784;2024-03-23T01:24:40;31.60;;;18.50;;
69551;SDS011;63774;45.292;11.784;2024-03-23T01:27:05;31.60;;;19.30;;
69551;SDS011;63774;45.292;11.784;2024-03-23T01:29:31;28.90;;;18.60;;
69551;SDS011;63774;45.292;11.784;2024-03-23T01:31:56;27.40;;;17.60;;
69551;SDS011;63774;45.292;11.784;2024-03-23T01:34:21;29.70;;;18.50;;
69551;SDS011;63774;45.292;11.784;2024-03-23T01:36:47;30.40;;;18.30;;
69551;SDS011;63774;45.292;11.784;2024-03-23T01:39:12;31.60;;;18.60;;
69551;SDS011;63774;45.292;11.784;2024-03-23T01:41:37;26.90;;;17.70;;
69551;SDS011;63774;45.292;11.784;2024-03-23T01:44:07;29.30;;;19.00;;
69551;SDS011;63774;45.292;11.784;2024-03-23T01:46:33;27.90;;;18.20;;
69551;SDS011;63774;45.292;11.784;2024-03-23T01:48:58;30.10;;;18.80;;
69551;SDS011;63774;45.292;11.784;2024-03-23T01:51:24;32.70;;;20.10;;
69551;SDS011;63774;45.292;11.784;2024-03-23T01:53:49;30.30;;;19.20;;
69551;SDS011;63774;45.292;11.784;2024-03-23T01:56:15;28.60;;;18.90;;
69551;SDS011;63774;45.292;11.784;2024-03-23T01:58:40;31.80;;;20.50;;
69551;SDS011;63774;45.292;11.784;2024-03-23T02:01:06;28.70;;;19.10;;
69551;SDS011;63774;45.292;11.784;2024-03-23T02:03:31;29.90;;;19.20;;
69551;SDS011;63774;45.292;11.784;2024-03-23T02:05:57;27.80;;;19.10;;
69551;SDS011;63774;45.292;11.784;2024-03-23T02:08:22;31.90;;;20.00;;
69551;SDS011;63774;45.292;11.784;2024-03-23T02:10:48;27.60;;;18.00;;
69551;SDS011;63774;45.292;11.784;2024-03-23T02:13:14;27.50;;;17.80;;
69551;SDS011;63774;45.292;11.784;2024-03-23T02:15:40;30.50;;;19.00;;
69551;SDS011;63774;45.292;11.784;2024-03-23T02:18:07;27.70;;;18.60;;
69551;SDS011;63774;45.292;11.784;2024-03-23T02:20:32;27.20;;;17.70;;
69551;SDS011;63774;45.292;11.784;2024-03-23T02:22:58;29.90;;;18.70;;
69551;SDS011;63774;45.292;11.784;2024-03-23T02:25:23;30.00;;;18.10;;
69551;SDS011;63774;45.292;11.784;2024-03-23T02:27:48;30.20;;;19.30;;
69551;SDS011;63774;45.292;11.784;2024-03-23T02:30:14;29.50;;;18.20;;
69551;SDS011;63774;45.292;11.784;2024-03-23T02:32:39;29.90;;;18.00;;
69551;SDS011;63774;45.292;11.784;2024-03-23T02:35:05;28.30;;;17.50;;
69551;SDS011;63774;45.292;11.784;2024-03-23T02:37:30;30.50;;;18.70;;
69551;SDS011;63774;45.292;11.784;2024-03-23T02:39:56;30.70;;;19.00;;
69551;SDS011;63774;45.292;11.784;2024-03-23T02:42:21;31.40;;;19.00;;
69551;SDS011;63774;45.292;11.784;2024-03-23T02:44:46;31.30;;;18.70;;
69551;SDS011;63774;45.292;11.784;2024-03-23T02:47:12;28.60;;;17.70;;
69551;SDS011;63774;45.292;11.784;2024-03-23T02:49:37;27.90;;;17.10;;
69551;SDS011;63774;45.292;11.784;2024-03-23T02:52:02;27.80;;;17.80;;
69551;SDS011;63774;45.292;11.784;2024-03-23T02:54:28;27.90;;;17.80;;
69551;SDS011;63774;45.292;11.784;2024-03-23T02:56:53;27.80;;;17.30;;
69551;SDS011;63774;45.292;11.784;2024-03-23T02:59:18;27.70;;;17.20;;
69551;SDS011;63774;45.292;11.784;2024-03-23T03:01:43;26.70;;;17.60;;
69551;SDS011;63774;45.292;11.784;2024-03-23T03:04:09;26.60;;;16.90;;
69551;SDS011;63774;45.292;11.784;2024-03-23T03:06:34;28.90;;;17.90;;
69551;SDS011;63774;45.292;11.784;2024-03-23T03:08:59;27.50;;;17.10;;
69551;SDS011;63774;45.292;11.784;2024-03-23T03:11:25;28.00;;;17.50;;
69551;SDS011;63774;45.292;11.784;2024-03-23T03:13:50;27.90;;;17.60;;
69551;SDS011;63774;45.292;11.784;2024-03-23T03:16:15;26.30;;;16.60;;
69551;SDS011;63774;45.292;11.784;2024-03-23T03:18:41;24.70;;;15.90;;
69551;SDS011;63774;45.292;11.784;2024-03-23T03:21:06;26.10;;;16.60;;
69551;SDS011;63774;45.292;11.784;2024-03-23T03:23:38;30.30;;;17.00;;
69551;SDS011;63774;45.292;11.784;2024-03-23T03:26:04;26.60;;;17.20;;
69551;SDS011;63774;45.292;11.784;2024-03-23T03:28:31;24.30;;;15.80;;
69551;SDS011;63774;45.292;11.784;2024-03-23T03:30:57;28.20;;;16.90;;
69551;SDS011;63774;45.292;11.784;2024-03-23T03:33:22;27.20;;;17.40;;
69551;SDS011;63774;45.292;11.784;2024-03-23T03:35:48;27.90;;;16.90;;
69551;SDS011;63774;45.292;11.784;2024-03-23T03:38:13;27.70;;;17.30;;
69551;SDS011;63774;45.292;11.784;2024-03-23T03:40:38;26.20;;;16.80;;
69551;SDS011;63774;45.292;11.784;2024-03-23T03:43:03;26.80;;;16.50;;
69551;SDS011;63774;45.292;11.784;2024-03-23T03:45:29;28.50;;;17.30;;
69551;SDS011;63774;45.292;11.784;2024-03-23T03:47:54;27.10;;;17.10;;
69551;SDS011;63774;45.292;11.784;2024-03-23T03:50:21;27.00;;;17.60;;
69551;SDS011;63774;45.292;11.784;2024-03-23T03:52:46;27.30;;;17.80;;
69551;SDS011;63774;45.292;11.784;2024-03-23T03:55:15;36.40;;;23.30;;
69551;SDS011;63774;45.292;11.784;2024-03-23T03:57:41;27.60;;;18.90;;
69551;SDS011;63774;45.292;11.784;2024-03-23T04:00:06;30.30;;;19.40;;
69551;SDS011;63774;45.292;11.784;2024-03-23T04:02:32;32.10;;;20.70;;
69551;SDS011;63774;45.292;11.784;2024-03-23T04:04:57;28.00;;;18.70;;
69551;SDS011;63774;45.292;11.784;2024-03-23T04:07:22;30.40;;;20.10;;
69551;SDS011;63774;45.292;11.784;2024-03-23T04:09:48;31.30;;;21.10;;
69551;SDS011;63774;45.292;11.784;2024-03-23T04:12:13;28.90;;;19.50;;
69551;SDS011;63774;45.292;11.784;2024-03-23T04:14:38;29.20;;;19.40;;
69551;SDS011;63774;45.292;11.784;2024-03-23T04:17:04;28.90;;;18.90;;
69551;SDS011;63774;45.292;11.784;2024-03-23T04:19:29;30.20;;;19.80;;
69551;SDS011;63774;45.292;11.784;2024-03-23T04:21:54;31.50;;;19.50;;
69551;SDS011;63774;45.292;11.784;2024-03-23T04:24:20;30.10;;;19.30;;
69551;SDS011;63774;45.292;11.784;2024-03-23T04:26:47;32.80;;;20.30;;
69551;SDS011;63774;45.292;11.784;2024-03-23T04:29:13;30.90;;;20.20;;
69551;SDS011;63774;45.292;11.784;2024-03-23T04:31:38;29.30;;;19.20;;
69551;SDS011;63774;45.292;11.784;2024-03-23T04:34:04;31.60;;;18.90;;
69551;SDS011;63774;45.292;11.784;2024-03-23T04:36:29;30.30;;;18.40;;
69551;SDS011;63774;45.292;11.784;2024-03-23T04:38:56;30.10;;;18.80;;
69551;SDS011;63774;45.292;11.784;2024-03-23T04:41:21;30.00;;;19.00;;
69551;SDS011;63774;45.292;11.784;2024-03-23T04:43:46;29.80;;;18.00;;
69551;SDS011;63774;45.292;11.784;2024-03-23T04:46:12;31.50;;;19.10;;
69551;SDS011;63774;45.292;11.784;2024-03-23T04:48:37;32.40;;;19.20;;
69551;SDS011;63774;45.292;11.784;2024-03-23T04:51:02;28.80;;;18.00;;
69551;SDS011;63774;45.292;11.784;2024-03-23T04:53:28;32.30;;;19.20;;
69551;SDS011;63774;45.292;11.784;2024-03-23T04:55:56;32.60;;;18.70;;
69551;SDS011;63774;45.292;11.784;2024-03-23T04:58:22;30.70;;;18.60;;
69551;SDS011;63774;45.292;11.784;2024-03-23T05:00:52;31.00;;;19.10;;
69551;SDS011;63774;45.292;11.784;2024-03-23T05:03:18;32.00;;;17.60;;
69551;SDS011;63774;45.292;11.784;2024-03-23T05:05:44;31.10;;;19.00;;
69551;SDS011;63774;45.292;11.784;2024-03-23T05:08:09;29.90;;;18.80;;
69551;SDS011;63774;45.292;11.784;2024-03-23T05:10:35;29.50;;;18.40;;
69551;SDS011;63774;45.292;11.784;2024-03-23T05:13:00;26.90;;;17.50;;
69551;SDS011;63774;45.292;11.784;2024-03-23T05:15:26;29.60;;;18.20;;
69551;SDS011;63774;45.292;11.784;2024-03-23T05:17:52;29.10;;;18.40;;
69551;SDS011;63774;45.292;11.784;2024-03-23T05:20:17;30.30;;;18.80;;
69551;SDS011;63774;45.292;11.784;2024-03-23T05:22:44;29.20;;;17.80;;
69551;SDS011;63774;45.292;11.784;2024-03-23T05:25:09;30.30;;;18.40;;
69551;SDS011;63774;45.292;11.784;2024-03-23T05:27:35;30.80;;;18.60;;
69551;SDS011;63774;45.292;11.784;2024-03-23T05:30:01;28.60;;;17.40;;
69551;SDS011;63774;45.292;11.784;2024-03-23T05:32:26;38.10;;;22.40;;
69551;SDS011;63774;45.292;11.784;2024-03-23T05:34:53;30.20;;;18.30;;
69551;SDS011;63774;45.292;11.784;2024-03-23T05:37:21;30.00;;;19.00;;
69551;SDS011;63774;45.292;11.784;2024-03-23T05:39:46;31.30;;;18.60;;
69551;SDS011;63774;45.292;11.784;2024-03-23T05:42:13;31.70;;;18.80;;
69551;SDS011;63774;45.292;11.784;2024-03-23T05:44:39;31.60;;;17.90;;
69551;SDS011;63774;45.292;11.784;2024-03-23T05:47:05;30.20;;;18.60;;
69551;SDS011;63774;45.292;11.784;2024-03-23T05:49:30;30.30;;;18.10;;
69551;SDS011;63774;45.292;11.784;2024-03-23T05:51:55;28.40;;;18.30;;
69551;SDS011;63774;45.292;11.784;2024-03-23T05:54:20;28.80;;;18.40;;
69551;SDS011;63774;45.292;11.784;2024-03-23T05:56:46;28.90;;;18.10;;
69551;SDS011;63774;45.292;11.784;2024-03-23T05:59:11;32.90;;;18.60;;
69551;SDS011;63774;45.292;11.784;2024-03-23T06:01:36;27.80;;;17.10;;
69551;SDS011;63774;45.292;11.784;2024-03-23T06:04:03;28.00;;;17.30;;
69551;SDS011;63774;45.292;11.784;2024-03-23T06:06:29;28.80;;;18.10;;
69551;SDS011;63774;45.292;11.784;2024-03-23T06:08:55;25.40;;;17.40;;
69551;SDS011;63774;45.292;11.784;2024-03-23T06:11:20;27.50;;;16.80;;
69551;SDS011;63774;45.292;11.784;2024-03-23T06:13:46;27.00;;;17.20;;
69551;SDS011;63774;45.292;11.784;2024-03-23T06:16:11;27.30;;;16.80;;
69551;SDS011;63774;45.292;11.784;2024-03-23T06:18:36;28.00;;;17.20;;
69551;SDS011;63774;45.292;11.784;2024-03-23T06:21:01;30.80;;;17.10;;
69551;SDS011;63774;45.292;11.784;2024-03-23T06:23:27;27.60;;;18.10;;
69551;SDS011;63774;45.292;11.784;2024-03-23T06:25:52;27.60;;;17.60;;
69551;SDS011;63774;45.292;11.784;2024-03-23T06:28:17;30.40;;;17.60;;
69551;SDS011;63774;45.292;11.784;2024-03-23T06:30:43;29.90;;;17.90;;
69551;SDS011;63774;45.292;11.784;2024-03-23T06:33:08;30.00;;;18.30;;
69551;SDS011;63774;45.292;11.784;2024-03-23T06:35:34;29.30;;;17.60;;
69551;SDS011;63774;45.292;11.784;2024-03-23T06:37:59;28.30;;;18.20;;
69551;SDS011;63774;45.292;11.784;2024-03-23T06:40:24;28.90;;;18.40;;
69551;SDS011;63774;45.292;11.784;2024-03-23T06:42:50;30.20;;;18.20;;
69551;SDS011;63774;45.292;11.784;2024-03-23T06:45:16;28.90;;;19.10;;
69551;SDS011;63774;45.292;11.784;2024-03-23T06:47:41;31.90;;;20.20;;
69551;SDS011;63774;45.292;11.784;2024-03-23T06:50:07;33.20;;;20.20;;
69551;SDS011;63774;45.292;11.784;2024-03-23T06:52:32;38.10;;;21.60;;
69551;SDS011;63774;45.292;11.784;2024-03-23T06:54:57;29.80;;;19.90;;
69551;SDS011;63774;45.292;11.784;2024-03-23T06:57:23;36.50;;;21.50;;
69551;SDS011;63774;45.292;11.784;2024-03-23T06:59:48;35.60;;;21.20;;
69551;SDS011;63774;45.292;11.784;2024-03-23T07:02:14;35.30;;;22.30;;
69551;SDS011;63774;45.292;11.784;2024-03-23T07:04:39;37.20;;;22.60;;
69551;SDS011;63774;45.292;11.784;2024-03-23T07:07:04;33.30;;;21.20;;
69551;SDS011;63774;45.292;11.784;2024-03-23T07:09:30;35.90;;;22.60;;
69551;SDS011;63774;45.292;11.784;2024-03-23T07:11:58;34.70;;;23.20;;
69551;SDS011;63774;45.292;11.784;2024-03-23T07:14:23;37.50;;;24.60;;
69551;SDS011;63774;45.292;11.784;2024-03-23T07:16:49;36.80;;;23.50;;
69551;SDS011;63774;45.292;11.784;2024-03-23T07:19:18;33.40;;;22.50;;
69551;SDS011;63774;45.292;11.784;2024-03-23T07:21:44;34.70;;;23.20;;
69551;SDS011;63774;45.292;11.784;2024-03-23T07:24:09;37.70;;;24.10;;
69551;SDS011;63774;45.292;11.784;2024-03-23T07:26:35;37.30;;;24.50;;
69551;SDS011;63774;45.292;11.784;2024-03-23T07:29:00;37.80;;;25.20;;
69551;SDS011;63774;45.292;11.784;2024-03-23T07:31:25;38.90;;;23.90;;
69551;SDS011;63774;45.292;11.784;2024-03-23T07:33:51;38.10;;;25.10;;
69551;SDS011;63774;45.292;11.784;2024-03-23T07:36:16;41.80;;;26.40;;
69551;SDS011;63774;45.292;11.784;2024-03-23T07:38:42;40.90;;;26.40;;
69551;SDS011;63774;45.292;11.784;2024-03-23T07:41:08;37.60;;;24.90;;
69551;SDS011;63774;45.292;11.784;2024-03-23T07:43:34;40.60;;;25.50;;
69551;SDS011;63774;45.292;11.784;2024-03-23T07:45:59;40.30;;;25.60;;
69551;SDS011;63774;45.292;11.784;2024-03-23T07:48:26;40.00;;;26.50;;
69551;SDS011;63774;45.292;11.784;2024-03-23T07:53:26;39.50;;;25.50;;
69551;SDS011;63774;45.292;11.784;2024-03-23T07:55:55;41.00;;;25.30;;
69551;SDS011;63774;45.292;11.784;2024-03-23T07:58:21;37.70;;;25.20;;
69551;SDS011;63774;45.292;11.784;2024-03-23T08:00:46;40.00;;;25.90;;
69551;SDS011;63774;45.292;11.784;2024-03-23T08:03:11;42.00;;;27.40;;
69551;SDS011;63774;45.292;11.784;2024-03-23T08:05:37;38.40;;;26.70;;
69551;SDS011;63774;45.292;11.784;2024-03-23T08:08:02;40.90;;;27.20;;
69551;SDS011;63774;45.292;11.784;2024-03-23T08:10:27;42.10;;;27.50;;
69551;SDS011;63774;45.292;11.784;2024-03-23T08:12:53;44.90;;;28.50;;
69551;SDS011;63774;45.292;11.784;2024-03-23T08:15:18;41.10;;;26.10;;
69551;SDS011;63774;45.292;11.784;2024-03-23T08:17:43;40.60;;;26.40;;
69551;SDS011;63774;45.292;11.784;2024-03-23T08:20:09;40.80;;;26.60;;
69551;SDS011;63774;45.292;11.784;2024-03-23T08:22:34;40.40;;;26.50;;
69551;SDS011;63774;45.292;11.784;2024-03-23T08:25:00;39.10;;;26.20;;
69551;SDS011;63774;45.292;11.784;2024-03-23T08:27:25;41.30;;;25.80;;
69551;SDS011;63774;45.292;11.784;2024-03-23T08:29:50;40.90;;;27.10;;
69551;SDS011;63774;45.292;11.784;2024-03-23T08:32:16;41.80;;;26.50;;
69551;SDS011;63774;45.292;11.784;2024-03-23T08:34:42;41.00;;;27.30;;
69551;SDS011;63774;45.292;11.784;2024-03-23T08:37:07;40.80;;;25.60;;
69551;SDS011;63774;45.292;11.784;2024-03-23T08:39:32;39.00;;;26.40;;
69551;SDS011;63774;45.292;11.784;2024-03-23T08:41:58;43.60;;;27.10;;
69551;SDS011;63774;45.292;11.784;2024-03-23T08:44:23;39.70;;;26.60;;
69551;SDS011;63774;45.292;11.784;2024-03-23T08:46:48;38.00;;;26.90;;
69551;SDS011;63774;45.292;11.784;2024-03-23T08:49:14;38.90;;;25.70;;
69551;SDS011;63774;45.292;11.784;2024-03-23T08:51:39;40.20;;;26.40;;
69551;SDS011;63774;45.292;11.784;2024-03-23T08:54:04;38.40;;;25.50;;
69551;SDS011;63774;45.292;11.784;2024-03-23T08:56:30;38.30;;;25.30;;
69551;SDS011;63774;45.292;11.784;2024-03-23T08:58:55;40.00;;;25.40;;
69551;SDS011;63774;45.292;11.784;2024-03-23T09:01:20;39.10;;;26.50;;
69551;SDS011;63774;45.292;11.784;2024-03-23T09:03:45;39.50;;;24.90;;
69551;SDS011;63774;45.292;11.784;2024-03-23T09:06:12;39.00;;;25.80;;
69551;SDS011;63774;45.292;11.784;2024-03-23T09:08:37;39.20;;;25.80;;
69551;SDS011;63774;45.292;11.784;2024-03-23T09:11:04;38.30;;;25.60;;
69551;SDS011;63774;45.292;11.784;2024-03-23T09:13:36;38.00;;;24.00;;
69551;SDS011;63774;45.292;11.784;2024-03-23T09:16:02;36.80;;;23.80;;
69551;SDS011;63774;45.292;11.784;2024-03-23T09:20:54;38.30;;;23.90;;
69551;SDS011;63774;45.292;11.784;2024-03-23T09:23:20;34.20;;;23.40;;
69551;SDS011;63774;45.292;11.784;2024-03-23T09:25:45;36.80;;;23.40;;
69551;SDS011;63774;45.292;11.784;2024-03-23T09:28:11;35.90;;;22.10;;
69551;SDS011;63774;45.292;11.784;2024-03-23T09:30:36;34.20;;;23.20;;
69551;SDS011;63774;45.292;11.784;2024-03-23T09:33:07;35.70;;;22.40;;
69551;SDS011;63774;45.292;11.784;2024-03-23T09:35:36;35.20;;;23.10;;
69551;SDS011;63774;45.292;11.784;2024-03-23T09:38:01;34.50;;;22.80;;
69551;SDS011;63774;45.292;11.784;2024-03-23T09:40:26;31.20;;;22.10;;
69551;SDS011;63774;45.292;11.784;2024-03-23T09:42:52;33.80;;;20.70;;
69551;SDS011;63774;45.292;11.784;2024-03-23T09:45:19;33.90;;;22.00;;
69551;SDS011;63774;45.292;11.784;2024-03-23T09:47:46;32.70;;;20.70;;
69551;SDS011;63774;45.292;11.784;2024-03-23T09:50:12;32.70;;;21.80;;
69551;SDS011;63774;45.292;11.784;2024-03-23T09:52:37;31.20;;;21.10;;
69551;SDS011;63774;45.292;11.784;2024-03-23T09:55:03;31.70;;;20.70;;
69551;SDS011;63774;45.292;11.784;2024-03-23T09:57:29;33.10;;;21.20;;
69551;SDS011;63774;45.292;11.784;2024-03-23T09:59:54;31.80;;;20.80;;
69551;SDS011;63774;45.292;11.784;2024-03-23T10:02:20;32.10;;;20.70;;
69551;SDS011;63774;45.292;11.784;2024-03-23T10:04:46;33.30;;;20.40;;
69551;SDS011;63774;45.292;11.784;2024-03-23T10:07:21;31.90;;;20.30;;
69551;SDS011;63774;45.292;11.784;2024-03-23T10:09:49;29.90;;;20.30;;
69551;SDS011;63774;45.292;11.784;2024-03-23T10:12:18;32.70;;;20.70;;
69551;SDS011;63774;45.292;11.784;2024-03-23T10:14:44;32.00;;;20.00;;
69551;SDS011;63774;45.292;11.784;2024-03-23T10:19:39;32.70;;;20.40;;
69551;SDS011;63774;45.292;11.784;2024-03-23T10:22:04;34.40;;;21.60;;
69551;SDS011;63774;45.292;11.784;2024-03-23T10:24:29;29.90;;;20.00;;
69551;SDS011;63774;45.292;11.784;2024-03-23T10:26:58;34.30;;;20.30;;
69551;SDS011;63774;45.292;11.784;2024-03-23T10:29:23;30.40;;;20.10;;
69551;SDS011;63774;45.292;11.784;2024-03-23T10:31:51;32.70;;;20.30;;
69551;SDS011;63774;45.292;11.784;2024-03-23T10:34:16;31.30;;;20.40;;
69551;SDS011;63774;45.292;11.784;2024-03-23T10:36:41;31.70;;;20.60;;
69551;SDS011;63774;45.292;11.784;2024-03-23T10:39:07;30.50;;;19.60;;
69551;SDS011;63774;45.292;11.784;2024-03-23T10:41:32;30.90;;;19.40;;
69551;SDS011;63774;45.292;11.784;2024-03-23T10:43:58;34.30;;;20.80;;
69551;SDS011;63774;45.292;11.784;2024-03-23T10:46:24;32.10;;;20.10;;
69551;SDS011;63774;45.292;11.784;2024-03-23T10:48:50;34.00;;;20.50;;
69551;SDS011;63774;45.292;11.784;2024-03-23T10:51:15;32.80;;;19.20;;
69551;SDS011;63774;45.292;11.784;2024-03-23T10:53:41;30.60;;;19.20;;
69551;SDS011;63774;45.292;11.784;2024-03-23T10:56:07;30.40;;;19.00;;
69551;SDS011;63774;45.292;11.784;2024-03-23T10:58:43;32.80;;;18.80;;
69551;SDS011;63774;45.292;11.784;2024-03-23T11:01:13;28.30;;;18.80;;
69551;SDS011;63774;45.292;11.784;2024-03-23T11:03:38;28.50;;;18.20;;
69551;SDS011;63774;45.292;11.784;2024-03-23T11:06:05;28.30;;;18.20;;
69551;SDS011;63774;45.292;11.784;2024-03-23T11:08:31;29.40;;;17.80;;
69551;SDS011;63774;45.292;11.784;2024-03-23T11:13:38;30.80;;;19.30;;
69551;SDS011;63774;45.292;11.784;2024-03-23T11:16:16;26.70;;;17.40;;
69551;SDS011;63774;45.292;11.784;2024-03-23T11:18:45;30.00;;;18.20;;
69551;SDS011;63774;45.292;11.784;2024-03-23T11:21:10;27.30;;;17.80;;
69551;SDS011;63774;45.292;11.784;2024-03-23T11:23:36;28.60;;;17.30;;
69551;SDS011;63774;45.292;11.784;2024-03-23T11:26:01;25.00;;;16.70;;
69551;SDS011;63774;45.292;11.784;2024-03-23T11:28:26;27.60;;;16.40;;
69551;SDS011;63774;45.292;11.784;2024-03-23T11:30:52;27.60;;;15.90;;
69551;SDS011;63774;45.292;11.784;2024-03-23T11:33:17;26.40;;;16.70;;
69551;SDS011;63774;45.292;11.784;2024-03-23T11:35:42;28.30;;;17.20;;
69551;SDS011;63774;45.292;11.784;2024-03-23T11:38:17;28.40;;;17.80;;
69551;SDS011;63774;45.292;11.784;2024-03-23T11:40:53;26.70;;;16.70;;
69551;SDS011;63774;45.292;11.784;2024-03-23T11:43:19;25.60;;;16.00;;
69551;SDS011;63774;45.292;11.784;2024-03-23T11:45:47;26.60;;;16.20;;
69551;SDS011;63774;45.292;11.784;2024-03-23T11:48:17;24.70;;;16.20;;
69551;SDS011;63774;45.292;11.784;2024-03-23T11:50:49;26.20;;;16.40;;
69551;SDS011;63774;45.292;11.784;2024-03-23T11:58:08;23.70;;;14.80;;
69551;SDS011;63774;45.292;11.784;2024-03-23T12:00:34;26.50;;;14.60;;
69551;SDS011;63774;45.292;11.784;2024-03-23T12:03:00;24.30;;;14.20;;
69551;SDS011;63774;45.292;11.784;2024-03-23T12:05:26;22.10;;;13.70;;
69551;SDS011;63774;45.292;11.784;2024-03-23T12:07:51;21.80;;;13.90;;
69551;SDS011;63774;45.292;11.784;2024-03-23T12:10:18;23.00;;;13.00;;
69551;SDS011;63774;45.292;11.784;2024-03-23T12:12:44;19.90;;;12.60;;
69551;SDS011;63774;45.292;11.784;2024-03-23T12:15:09;19.80;;;11.70;;
69551;SDS011;63774;45.292;11.784;2024-03-23T12:17:36;19.30;;;11.70;;
69551;SDS011;63774;45.292;11.784;2024-03-23T12:20:01;19.50;;;11.50;;
69551;SDS011;63774;45.292;11.784;2024-03-23T12:22:26;18.00;;;10.30;;
69551;SDS011;63774;45.292;11.784;2024-03-23T12:24:52;16.60;;;9.20;;
69551;SDS011;63774;45.292;11.784;2024-03-23T12:27:18;16.40;;;9.20;;
69551;SDS011;63774;45.292;11.784;2024-03-23T12:29:43;16.00;;;9.30;;
69551;SDS011;63774;45.292;11.784;2024-03-23T12:32:11;14.60;;;8.30;;
69551;SDS011;63774;45.292;11.784;2024-03-23T12:34:36;14.90;;;8.40;;
69551;SDS011;63774;45.292;11.784;2024-03-23T12:37:01;11.60;;;7.70;;
69551;SDS011;63774;45.292;11.784;2024-03-23T12:39:27;13.00;;;7.80;;
69551;SDS011;63774;45.292;11.784;2024-03-23T12:41:52;15.80;;;8.10;;
69551;SDS011;63774;45.292;11.784;2024-03-23T12:44:18;13.20;;;7.60;;
69551;SDS011;63774;45.292;11.784;2024-03-23T12:46:43;12.90;;;7.30;;
69551;SDS011;63774;45.292;11.784;2024-03-23T12:49:09;13.20;;;7.70;;
69551;SDS011;63774;45.292;11.784;2024-03-23T12:51:35;12.90;;;7.40;;
69551;SDS011;63774;45.292;11.784;2024-03-23T12:54:00;11.70;;;6.60;;
69551;SDS011;63774;45.292;11.784;2024-03-23T12:56:25;11.50;;;6.70;;
69551;SDS011;63774;45.292;11.784;2024-03-23T12:58:53;10.80;;;6.00;;
69551;SDS011;63774;45.292;11.784;2024-03-23T13:01:20;8.80;;;5.70;;
69551;SDS011;63774;45.292;11.784;2024-03-23T13:03:49;10.20;;;5.70;;
69551;SDS011;63774;45.292;11.784;2024-03-23T13:06:14;9.70;;;6.00;;
69551;SDS011;63774;45.292;11.784;2024-03-23T13:08:40;11.10;;;6.20;;
69551;SDS011;63774;45.292;11.784;2024-03-23T13:11:08;10.50;;;6.10;;
69551;SDS011;63774;45.292;11.784;2024-03-23T13:13:34;12.40;;;6.40;;
69551;SDS011;63774;45.292;11.784;2024-03-23T13:15:59;12.20;;;6.30;;
69551;SDS011;63774;45.292;11.784;2024-03-23T13:18:24;13.20;;;6.60;;
69551;SDS011;63774;45.292;11.784;2024-03-23T13:20:50;12.40;;;6.70;;
69551;SDS011;63774;45.292;11.784;2024-03-23T13:23:15;11.50;;;6.60;;
69551;SDS011;63774;45.292;11.784;2024-03-23T13:25:40;10.80;;;6.80;;
69551;SDS011;63774;45.292;11.784;2024-03-23T13:28:06;13.60;;;7.20;;
69551;SDS011;63774;45.292;11.784;2024-03-23T13:30:31;11.30;;;6.70;;
69551;SDS011;63774;45.292;11.784;2024-03-23T13:32:56;12.20;;;6.90;;
69551;SDS011;63774;45.292;11.784;2024-03-23T13:35:21;13.00;;;6.90;;
69551;SDS011;63774;45.292;11.784;2024-03-23T13:37:48;10.70;;;6.50;;
69551;SDS011;63774;45.292;11.784;2024-03-23T13:40:13;12.80;;;6.80;;
69551;SDS011;63774;45.292;11.784;2024-03-23T13:42:39;11.00;;;6.50;;
69551;SDS011;63774;45.292;11.784;2024-03-23T13:45:04;11.60;;;6.60;;
69551;SDS011;63774;45.292;11.784;2024-03-23T13:47:29;13.70;;;6.90;;
69551;SDS011;63774;45.292;11.784;2024-03-23T13:49:55;13.10;;;6.70;;
69551;SDS011;63774;45.292;11.784;2024-03-23T13:52:21;12.50;;;7.10;;
69551;SDS011;63774;45.292;11.784;2024-03-23T13:54:48;12.90;;;7.10;;
69551;SDS011;63774;45.292;11.784;2024-03-23T13:57:13;15.60;;;7.10;;
69551;SDS011;63774;45.292;11.784;2024-03-23T13:59:38;11.30;;;6.50;;
69551;SDS011;63774;45.292;11.784;2024-03-23T14:02:04;13.00;;;7.10;;
69551;SDS011;63774;45.292;11.784;2024-03-23T14:04:29;10.90;;;6.50;;
69551;SDS011;63774;45.292;11.784;2024-03-23T14:06:54;12.20;;;6.70;;
69551;SDS011;63774;45.292;11.784;2024-03-23T14:09:20;12.80;;;6.10;;
69551;SDS011;63774;45.292;11.784;2024-03-23T14:11:50;11.80;;;6.20;;
69551;SDS011;63774;45.292;11.784;2024-03-23T14:14:16;9.60;;;6.00;;
69551;SDS011;63774;45.292;11.784;2024-03-23T14:16:42;13.60;;;6.20;;
69551;SDS011;63774;45.292;11.784;2024-03-23T14:19:07;11.40;;;5.70;;
69551;SDS011;63774;45.292;11.784;2024-03-23T14:21:32;10.30;;;6.10;;
69551;SDS011;63774;45.292;11.784;2024-03-23T14:23:59;11.00;;;5.90;;
69551;SDS011;63774;45.292;11.784;2024-03-23T14:26:26;10.50;;;5.70;;
69551;SDS011;63774;45.292;11.784;2024-03-23T14:28:51;10.40;;;6.00;;
69551;SDS011;63774;45.292;11.784;2024-03-23T14:31:16;11.20;;;6.50;;
69551;SDS011;63774;45.292;11.784;2024-03-23T14:33:41;13.20;;;6.60;;
69551;SDS011;63774;45.292;11.784;2024-03-23T14:36:11;13.70;;;6.30;;
69551;SDS011;63774;45.292;11.784;2024-03-23T14:38:37;10.70;;;6.50;;
69551;SDS011;63774;45.292;11.784;2024-03-23T14:41:03;12.50;;;6.90;;
69551;SDS011;63774;45.292;11.784;2024-03-23T14:43:29;11.40;;;6.60;;
69551;SDS011;63774;45.292;11.784;2024-03-23T14:48:32;13.20;;;6.40;;
69551;SDS011;63774;45.292;11.784;2024-03-23T14:50:58;12.80;;;6.60;;
69551;SDS011;63774;45.292;11.784;2024-03-23T14:53:29;12.30;;;6.80;;
69551;SDS011;63774;45.292;11.784;2024-03-23T14:55:56;13.40;;;6.60;;
69551;SDS011;63774;45.292;11.784;2024-03-23T14:58:21;10.30;;;6.20;;
69551;SDS011;63774;45.292;11.784;2024-03-23T15:00:48;12.70;;;6.90;;
69551;SDS011;63774;45.292;11.784;2024-03-23T15:03:13;11.80;;;6.30;;
69551;SDS011;63774;45.292;11.784;2024-03-23T15:05:38;12.00;;;6.20;;
69551;SDS011;63774;45.292;11.784;2024-03-23T15:08:04;11.60;;;7.10;;
69551;SDS011;63774;45.292;11.784;2024-03-23T15:10:30;12.90;;;6.90;;
69551;SDS011;63774;45.292;11.784;2024-03-23T15:12:57;13.50;;;6.80;;
69551;SDS011;63774;45.292;11.784;2024-03-23T15:15:23;12.00;;;6.20;;